sensor_id;sensor_type;location;lat;lon;timestamp;P1;durP1;ratioP1;P2;durP2;ratioP2
31210;SDS011;17836;50.948;3.946;2023-08-20T00:00:12;11.95;;;2.63;;
31210;SDS011;17836;50.948;3.946;2023-08-20T00:02:37;8.32;;;2.45;;
31210;SDS011;17836;50.948;3.946;2023-08-20T00:05:03;6.65;;;2.63;;
31210;SDS011;17836;50.948;3.946;2023-08-20T00:07:31;5.53;;;1.98;;
31210;SDS011;17836;50.948;3.946;2023-08-20T00:09:56;3.97;;;2.47;;
31210;SDS011;17836;50.948;3.946;2023-08-20T00:12:24;6.93;;;2.40;;
31210;SDS011;17836;50.948;3.946;2023-08-20T00:14:51;9.77;;;2.80;;
31210;SDS011;17836;50.948;3.946;2023-08-20T00:17:18;8.02;;;2.50;;
31210;SDS011;17836;50.948;3.946;2023-08-20T00:19:44;5.95;;;2.10;;
31210;SDS011;17836;50.948;3.946;2023-08-20T00:22:09;7.35;;;2.65;;
31210;SDS011;17836;50.948;3.946;2023-08-20T00:24:35;7.78;;;2.60;;
31210;SDS011;17836;50.948;3.946;2023-08-20T00:27:00;12.95;;;3.13;;
31210;SDS011;17836;50.948;3.946;2023-08-20T00:29:26;8.73;;;3.43;;
31210;SDS011;17836;50.948;3.946;2023-08-20T00:31:51;5.77;;;2.80;;
31210;SDS011;17836;50.948;3.946;2023-08-20T00:34:16;6.53;;;2.27;;
31210;SDS011;17836;50.948;3.946;2023-08-20T00:36:41;6.67;;;2.70;;
31210;SDS011;17836;50.948;3.946;2023-08-20T00:39:07;11.05;;;3.00;;
31210;SDS011;17836;50.948;3.946;2023-08-20T00:41:32;8.75;;;2.85;;
31210;SDS011;17836;50.948;3.946;2023-08-20T00:43:57;8.30;;;2.95;;
31210;SDS011;17836;50.948;3.946;2023-08-20T00:46:25;5.63;;;2.33;;
31210;SDS011;17836;50.948;3.946;2023-08-20T00:48:50;6.00;;;2.42;;
31210;SDS011;17836;50.948;3.946;2023-08-20T00:51:16;8.70;;;2.40;;
31210;SDS011;17836;50.948;3.946;2023-08-20T00:53:41;9.20;;;3.20;;
31210;SDS011;17836;50.948;3.946;2023-08-20T00:56:07;6.75;;;2.75;;
31210;SDS011;17836;50.948;3.946;2023-08-20T00:58:32;8.35;;;2.78;;
31210;SDS011;17836;50.948;3.946;2023-08-20T01:00:57;9.83;;;3.13;;
31210;SDS011;17836;50.948;3.946;2023-08-20T01:03:25;7.72;;;2.45;;
31210;SDS011;17836;50.948;3.946;2023-08-20T01:08:29;6.90;;;2.53;;
31210;SDS011;17836;50.948;3.946;2023-08-20T01:11:01;9.23;;;3.08;;
31210;SDS011;17836;50.948;3.946;2023-08-20T01:13:28;6.72;;;2.28;;
31210;SDS011;17836;50.948;3.946;2023-08-20T01:15:54;5.75;;;2.47;;
31210;SDS011;17836;50.948;3.946;2023-08-20T01:18:21;6.65;;;2.72;;
31210;SDS011;17836;50.948;3.946;2023-08-20T01:20:51;6.25;;;2.72;;
31210;SDS011;17836;50.948;3.946;2023-08-20T01:30:51;9.00;;;2.83;;
31210;SDS011;17836;50.948;3.946;2023-08-20T01:33:18;10.30;;;2.80;;
31210;SDS011;17836;50.948;3.946;2023-08-20T01:35:44;6.18;;;2.33;;
31210;SDS011;17836;50.948;3.946;2023-08-20T01:38:09;8.55;;;2.88;;
31210;SDS011;17836;50.948;3.946;2023-08-20T01:40:35;5.57;;;2.50;;
31210;SDS011;17836;50.948;3.946;2023-08-20T01:43:00;11.43;;;2.92;;
31210;SDS011;17836;50.948;3.946;2023-08-20T01:45:25;6.53;;;2.27;;
31210;SDS011;17836;50.948;3.946;2023-08-20T01:47:51;5.38;;;1.95;;
31210;SDS011;17836;50.948;3.946;2023-08-20T01:50:16;6.80;;;2.07;;
31210;SDS011;17836;50.948;3.946;2023-08-20T01:52:41;6.57;;;2.27;;
31210;SDS011;17836;50.948;3.946;2023-08-20T01:55:09;7.05;;;2.33;;
31210;SDS011;17836;50.948;3.946;2023-08-20T01:57:35;5.28;;;2.05;;
31210;SDS011;17836;50.948;3.946;2023-08-20T02:00:00;10.00;;;2.47;;
31210;SDS011;17836;50.948;3.946;2023-08-20T02:02:25;7.95;;;2.45;;
31210;SDS011;17836;50.948;3.946;2023-08-20T02:04:51;8.57;;;2.30;;
31210;SDS011;17836;50.948;3.946;2023-08-20T02:07:16;7.67;;;2.23;;
31210;SDS011;17836;50.948;3.946;2023-08-20T02:09:41;7.78;;;2.38;;
31210;SDS011;17836;50.948;3.946;2023-08-20T02:12:09;6.10;;;2.63;;
31210;SDS011;17836;50.948;3.946;2023-08-20T02:14:34;4.88;;;2.25;;
31210;SDS011;17836;50.948;3.946;2023-08-20T02:17:03;9.77;;;2.45;;
31210;SDS011;17836;50.948;3.946;2023-08-20T02:19:31;7.22;;;2.58;;
31210;SDS011;17836;50.948;3.946;2023-08-20T02:21:56;6.32;;;2.60;;
31210;SDS011;17836;50.948;3.946;2023-08-20T02:24:23;5.15;;;2.08;;
31210;SDS011;17836;50.948;3.946;2023-08-20T02:26:48;4.93;;;1.92;;
31210;SDS011;17836;50.948;3.946;2023-08-20T02:29:16;9.25;;;2.03;;
31210;SDS011;17836;50.948;3.946;2023-08-20T02:31:43;7.45;;;2.20;;
31210;SDS011;17836;50.948;3.946;2023-08-20T02:34:08;5.15;;;2.00;;
31210;SDS011;17836;50.948;3.946;2023-08-20T02:36:34;2.73;;;1.87;;
31210;SDS011;17836;50.948;3.946;2023-08-20T02:38:59;6.65;;;2.97;;
31210;SDS011;17836;50.948;3.946;2023-08-20T02:41:24;8.27;;;2.80;;
31210;SDS011;17836;50.948;3.946;2023-08-20T02:43:50;9.70;;;2.53;;
31210;SDS011;17836;50.948;3.946;2023-08-20T02:46:15;7.90;;;3.00;;
31210;SDS011;17836;50.948;3.946;2023-08-20T02:48:40;6.67;;;2.47;;
31210;SDS011;17836;50.948;3.946;2023-08-20T02:51:05;9.40;;;2.60;;
31210;SDS011;17836;50.948;3.946;2023-08-20T02:53:31;4.87;;;2.57;;
31210;SDS011;17836;50.948;3.946;2023-08-20T02:55:56;7.40;;;3.73;;
31210;SDS011;17836;50.948;3.946;2023-08-20T02:58:24;7.65;;;2.78;;
31210;SDS011;17836;50.948;3.946;2023-08-20T03:00:49;6.85;;;2.92;;
31210;SDS011;17836;50.948;3.946;2023-08-20T03:03:14;6.68;;;2.80;;
31210;SDS011;17836;50.948;3.946;2023-08-20T03:05:40;7.87;;;2.87;;
31210;SDS011;17836;50.948;3.946;2023-08-20T03:08:05;6.23;;;2.33;;
31210;SDS011;17836;50.948;3.946;2023-08-20T03:10:30;7.78;;;2.42;;
31210;SDS011;17836;50.948;3.946;2023-08-20T03:12:57;8.68;;;2.40;;
31210;SDS011;17836;50.948;3.946;2023-08-20T03:15:22;4.95;;;2.42;;
31210;SDS011;17836;50.948;3.946;2023-08-20T03:17:48;6.13;;;2.70;;
31210;SDS011;17836;50.948;3.946;2023-08-20T03:20:13;5.03;;;2.60;;
31210;SDS011;17836;50.948;3.946;2023-08-20T03:22:38;6.07;;;2.43;;
31210;SDS011;17836;50.948;3.946;2023-08-20T03:25:04;8.05;;;3.10;;
31210;SDS011;17836;50.948;3.946;2023-08-20T03:27:30;6.20;;;2.25;;
31210;SDS011;17836;50.948;3.946;2023-08-20T03:29:55;8.50;;;2.53;;
31210;SDS011;17836;50.948;3.946;2023-08-20T03:32:20;5.13;;;2.75;;
31210;SDS011;17836;50.948;3.946;2023-08-20T03:34:46;7.22;;;2.47;;
31210;SDS011;17836;50.948;3.946;2023-08-20T03:37:11;6.70;;;3.17;;
31210;SDS011;17836;50.948;3.946;2023-08-20T03:39:36;11.45;;;3.58;;
31210;SDS011;17836;50.948;3.946;2023-08-20T03:42:02;5.93;;;2.10;;
31210;SDS011;17836;50.948;3.946;2023-08-20T03:44:27;6.43;;;2.40;;
31210;SDS011;17836;50.948;3.946;2023-08-20T03:46:54;4.95;;;2.45;;
31210;SDS011;17836;50.948;3.946;2023-08-20T03:49:19;6.57;;;2.33;;
31210;SDS011;17836;50.948;3.946;2023-08-20T03:51:44;9.90;;;2.70;;
31210;SDS011;17836;50.948;3.946;2023-08-20T03:54:10;6.43;;;2.23;;
31210;SDS011;17836;50.948;3.946;2023-08-20T03:56:35;6.40;;;2.17;;
31210;SDS011;17836;50.948;3.946;2023-08-20T03:59:01;7.28;;;2.75;;
31210;SDS011;17836;50.948;3.946;2023-08-20T04:01:26;11.43;;;2.67;;
31210;SDS011;17836;50.948;3.946;2023-08-20T04:03:52;9.27;;;2.80;;
31210;SDS011;17836;50.948;3.946;2023-08-20T04:06:17;7.20;;;2.50;;
31210;SDS011;17836;50.948;3.946;2023-08-20T04:08:42;6.13;;;2.57;;
31210;SDS011;17836;50.948;3.946;2023-08-20T04:11:08;5.03;;;2.27;;
31210;SDS011;17836;50.948;3.946;2023-08-20T04:13:33;4.30;;;2.27;;
31210;SDS011;17836;50.948;3.946;2023-08-20T04:15:58;6.70;;;2.43;;
31210;SDS011;17836;50.948;3.946;2023-08-20T04:18:26;4.15;;;1.45;;
31210;SDS011;17836;50.948;3.946;2023-08-20T04:20:54;6.55;;;2.25;;
31210;SDS011;17836;50.948;3.946;2023-08-20T04:23:20;3.63;;;2.45;;
31210;SDS011;17836;50.948;3.946;2023-08-20T04:25:46;5.87;;;2.13;;
31210;SDS011;17836;50.948;3.946;2023-08-20T04:28:11;3.97;;;2.10;;
31210;SDS011;17836;50.948;3.946;2023-08-20T04:30:37;5.65;;;1.88;;
31210;SDS011;17836;50.948;3.946;2023-08-20T04:33:02;3.13;;;1.60;;
31210;SDS011;17836;50.948;3.946;2023-08-20T04:35:27;3.88;;;1.92;;
31210;SDS011;17836;50.948;3.946;2023-08-20T04:37:55;4.80;;;1.42;;
31210;SDS011;17836;50.948;3.946;2023-08-20T04:40:20;3.43;;;2.27;;
31210;SDS011;17836;50.948;3.946;2023-08-20T04:42:45;5.63;;;2.50;;
31210;SDS011;17836;50.948;3.946;2023-08-20T04:45:11;3.80;;;1.97;;
31210;SDS011;17836;50.948;3.946;2023-08-20T04:47:36;6.07;;;2.43;;
31210;SDS011;17836;50.948;3.946;2023-08-20T04:50:02;5.65;;;2.40;;
31210;SDS011;17836;50.948;3.946;2023-08-20T04:52:27;4.40;;;2.38;;
31210;SDS011;17836;50.948;3.946;2023-08-20T04:54:52;3.60;;;2.27;;
31210;SDS011;17836;50.948;3.946;2023-08-20T04:57:20;9.82;;;2.60;;
31210;SDS011;17836;50.948;3.946;2023-08-20T04:59:45;7.33;;;2.80;;
31210;SDS011;17836;50.948;3.946;2023-08-20T05:02:11;3.63;;;2.10;;
31210;SDS011;17836;50.948;3.946;2023-08-20T05:04:41;4.97;;;2.38;;
31210;SDS011;17836;50.948;3.946;2023-08-20T05:07:09;6.75;;;2.28;;
31210;SDS011;17836;50.948;3.946;2023-08-20T05:09:36;3.47;;;2.10;;
31210;SDS011;17836;50.948;3.946;2023-08-20T05:12:02;7.53;;;2.30;;
31210;SDS011;17836;50.948;3.946;2023-08-20T05:14:29;6.53;;;3.17;;
31210;SDS011;17836;50.948;3.946;2023-08-20T05:16:54;5.13;;;2.33;;
31210;SDS011;17836;50.948;3.946;2023-08-20T05:19:20;5.20;;;2.78;;
31210;SDS011;17836;50.948;3.946;2023-08-20T05:21:45;6.80;;;2.92;;
31210;SDS011;17836;50.948;3.946;2023-08-20T05:24:13;6.87;;;2.33;;
31210;SDS011;17836;50.948;3.946;2023-08-20T05:26:38;5.53;;;2.38;;
31210;SDS011;17836;50.948;3.946;2023-08-20T05:29:03;4.93;;;2.30;;
31210;SDS011;17836;50.948;3.946;2023-08-20T05:31:28;3.43;;;2.20;;
31210;SDS011;17836;50.948;3.946;2023-08-20T05:33:54;5.23;;;2.40;;
31210;SDS011;17836;50.948;3.946;2023-08-20T05:36:19;4.87;;;2.43;;
31210;SDS011;17836;50.948;3.946;2023-08-20T05:38:44;5.57;;;3.00;;
31210;SDS011;17836;50.948;3.946;2023-08-20T05:41:14;5.90;;;2.53;;
31210;SDS011;17836;50.948;3.946;2023-08-20T05:43:40;6.35;;;2.58;;
31210;SDS011;17836;50.948;3.946;2023-08-20T05:46:05;4.25;;;2.38;;
31210;SDS011;17836;50.948;3.946;2023-08-20T05:48:30;7.57;;;2.58;;
31210;SDS011;17836;50.948;3.946;2023-08-20T05:50:55;10.00;;;2.90;;
31210;SDS011;17836;50.948;3.946;2023-08-20T05:53:24;4.25;;;2.28;;
31210;SDS011;17836;50.948;3.946;2023-08-20T05:55:49;3.72;;;2.70;;
31210;SDS011;17836;50.948;3.946;2023-08-20T05:58:17;3.78;;;2.90;;
31210;SDS011;17836;50.948;3.946;2023-08-20T06:00:42;5.20;;;2.37;;
31210;SDS011;17836;50.948;3.946;2023-08-20T06:03:07;7.50;;;2.93;;
31210;SDS011;17836;50.948;3.946;2023-08-20T06:05:33;7.70;;;3.13;;
31210;SDS011;17836;50.948;3.946;2023-08-20T06:07:59;6.10;;;2.70;;
31210;SDS011;17836;50.948;3.946;2023-08-20T06:10:24;5.75;;;3.47;;
31210;SDS011;17836;50.948;3.946;2023-08-20T06:12:49;5.47;;;2.95;;
31210;SDS011;17836;50.948;3.946;2023-08-20T06:15:15;10.00;;;3.07;;
31210;SDS011;17836;50.948;3.946;2023-08-20T06:17:40;7.93;;;3.07;;
31210;SDS011;17836;50.948;3.946;2023-08-20T06:20:08;5.15;;;2.35;;
31210;SDS011;17836;50.948;3.946;2023-08-20T06:22:33;7.70;;;2.85;;
31210;SDS011;17836;50.948;3.946;2023-08-20T06:24:59;6.18;;;2.45;;
31210;SDS011;17836;50.948;3.946;2023-08-20T06:27:24;5.57;;;2.30;;
31210;SDS011;17836;50.948;3.946;2023-08-20T06:29:49;3.90;;;2.00;;
31210;SDS011;17836;50.948;3.946;2023-08-20T06:32:15;5.28;;;2.08;;
31210;SDS011;17836;50.948;3.946;2023-08-20T06:34:40;6.30;;;2.00;;
31210;SDS011;17836;50.948;3.946;2023-08-20T06:37:05;5.13;;;1.35;;
31210;SDS011;17836;50.948;3.946;2023-08-20T06:39:33;3.20;;;1.73;;
31210;SDS011;17836;50.948;3.946;2023-08-20T06:41:58;5.13;;;1.40;;
31210;SDS011;17836;50.948;3.946;2023-08-20T06:44:23;3.65;;;1.17;;
31210;SDS011;17836;50.948;3.946;2023-08-20T06:46:49;3.90;;;1.20;;
31210;SDS011;17836;50.948;3.946;2023-08-20T06:49:14;2.95;;;1.10;;
31210;SDS011;17836;50.948;3.946;2023-08-20T06:51:39;5.43;;;1.43;;
31210;SDS011;17836;50.948;3.946;2023-08-20T06:54:04;4.50;;;0.80;;
31210;SDS011;17836;50.948;3.946;2023-08-20T06:56:33;4.10;;;1.25;;
31210;SDS011;17836;50.948;3.946;2023-08-20T06:58:58;3.67;;;1.08;;
31210;SDS011;17836;50.948;3.946;2023-08-20T07:01:23;3.43;;;1.20;;
31210;SDS011;17836;50.948;3.946;2023-08-20T07:03:48;4.83;;;1.00;;
31210;SDS011;17836;50.948;3.946;2023-08-20T07:06:14;5.53;;;1.60;;
31210;SDS011;17836;50.948;3.946;2023-08-20T07:08:41;4.32;;;1.30;;
31210;SDS011;17836;50.948;3.946;2023-08-20T07:11:06;3.38;;;1.35;;
31210;SDS011;17836;50.948;3.946;2023-08-20T07:13:34;7.97;;;1.53;;
31210;SDS011;17836;50.948;3.946;2023-08-20T07:15:59;3.70;;;1.10;;
31210;SDS011;17836;50.948;3.946;2023-08-20T07:18:25;4.73;;;1.00;;
31210;SDS011;17836;50.948;3.946;2023-08-20T07:20:52;4.80;;;1.20;;
31210;SDS011;17836;50.948;3.946;2023-08-20T07:23:18;3.95;;;1.05;;
31210;SDS011;17836;50.948;3.946;2023-08-20T07:25:43;5.23;;;1.40;;
31210;SDS011;17836;50.948;3.946;2023-08-20T07:28:10;3.13;;;0.90;;
31210;SDS011;17836;50.948;3.946;2023-08-20T07:30:35;3.45;;;1.17;;
31210;SDS011;17836;50.948;3.946;2023-08-20T07:33:00;2.47;;;1.00;;
31210;SDS011;17836;50.948;3.946;2023-08-20T07:35:26;3.53;;;1.02;;
31210;SDS011;17836;50.948;3.946;2023-08-20T07:37:51;3.08;;;0.93;;
31210;SDS011;17836;50.948;3.946;2023-08-20T07:40:17;4.13;;;0.90;;
31210;SDS011;17836;50.948;3.946;2023-08-20T07:42:42;2.97;;;1.00;;
31210;SDS011;17836;50.948;3.946;2023-08-20T07:45:08;2.80;;;0.93;;
31210;SDS011;17836;50.948;3.946;2023-08-20T07:47:35;2.35;;;0.82;;
31210;SDS011;17836;50.948;3.946;2023-08-20T07:50:00;3.38;;;1.33;;
31210;SDS011;17836;50.948;3.946;2023-08-20T07:52:25;3.43;;;0.90;;
31210;SDS011;17836;50.948;3.946;2023-08-20T07:54:51;4.37;;;1.13;;
31210;SDS011;17836;50.948;3.946;2023-08-20T07:57:16;3.93;;;0.97;;
31210;SDS011;17836;50.948;3.946;2023-08-20T07:59:41;3.90;;;0.73;;
31210;SDS011;17836;50.948;3.946;2023-08-20T08:02:07;3.60;;;0.90;;
31210;SDS011;17836;50.948;3.946;2023-08-20T08:04:33;3.23;;;0.97;;
31210;SDS011;17836;50.948;3.946;2023-08-20T08:06:58;4.18;;;1.00;;
31210;SDS011;17836;50.948;3.946;2023-08-20T08:09:27;4.93;;;1.40;;
31210;SDS011;17836;50.948;3.946;2023-08-20T08:11:58;3.65;;;1.13;;
31210;SDS011;17836;50.948;3.946;2023-08-20T08:14:26;3.80;;;0.90;;
31210;SDS011;17836;50.948;3.946;2023-08-20T08:16:51;4.15;;;0.88;;
31210;SDS011;17836;50.948;3.946;2023-08-20T08:19:17;5.18;;;1.00;;
31210;SDS011;17836;50.948;3.946;2023-08-20T08:21:43;2.30;;;0.80;;
31210;SDS011;17836;50.948;3.946;2023-08-20T08:24:09;2.90;;;1.00;;
31210;SDS011;17836;50.948;3.946;2023-08-20T08:26:34;4.10;;;0.90;;
31210;SDS011;17836;50.948;3.946;2023-08-20T08:29:03;3.47;;;0.93;;
31210;SDS011;17836;50.948;3.946;2023-08-20T08:31:28;3.95;;;1.30;;
31210;SDS011;17836;50.948;3.946;2023-08-20T08:33:53;3.70;;;0.90;;
31210;SDS011;17836;50.948;3.946;2023-08-20T08:36:19;3.53;;;0.93;;
31210;SDS011;17836;50.948;3.946;2023-08-20T08:38:46;4.57;;;1.17;;
31210;SDS011;17836;50.948;3.946;2023-08-20T08:41:12;3.17;;;1.05;;
31210;SDS011;17836;50.948;3.946;2023-08-20T08:43:41;2.60;;;0.70;;
31210;SDS011;17836;50.948;3.946;2023-08-20T08:46:12;3.55;;;1.25;;
31210;SDS011;17836;50.948;3.946;2023-08-20T08:48:38;5.03;;;1.23;;
31210;SDS011;17836;50.948;3.946;2023-08-20T08:51:07;3.45;;;0.88;;
31210;SDS011;17836;50.948;3.946;2023-08-20T08:53:32;2.92;;;0.98;;
31210;SDS011;17836;50.948;3.946;2023-08-20T08:55:58;3.65;;;1.00;;
31210;SDS011;17836;50.948;3.946;2023-08-20T08:58:23;4.22;;;0.90;;
31210;SDS011;17836;50.948;3.946;2023-08-20T09:00:49;5.13;;;1.07;;
31210;SDS011;17836;50.948;3.946;2023-08-20T09:03:14;4.33;;;1.10;;
31210;SDS011;17836;50.948;3.946;2023-08-20T09:05:46;2.00;;;0.60;;
31210;SDS011;17836;50.948;3.946;2023-08-20T09:08:18;2.90;;;0.73;;
31210;SDS011;17836;50.948;3.946;2023-08-20T09:10:48;4.85;;;0.90;;
31210;SDS011;17836;50.948;3.946;2023-08-20T09:13:14;1.70;;;0.60;;
31210;SDS011;17836;50.948;3.946;2023-08-20T09:15:40;2.58;;;0.57;;
31210;SDS011;17836;50.948;3.946;2023-08-20T09:18:08;2.67;;;0.70;;
31210;SDS011;17836;50.948;3.946;2023-08-20T09:20:36;2.97;;;1.55;;
31210;SDS011;17836;50.948;3.946;2023-08-20T09:23:10;4.90;;;0.85;;
31210;SDS011;17836;50.948;3.946;2023-08-20T09:25:35;6.75;;;1.20;;
31210;SDS011;17836;50.948;3.946;2023-08-20T09:28:04;2.13;;;0.70;;
31210;SDS011;17836;50.948;3.946;2023-08-20T09:30:31;2.90;;;0.60;;
31210;SDS011;17836;50.948;3.946;2023-08-20T09:33:17;2.67;;;0.70;;
31210;SDS011;17836;50.948;3.946;2023-08-20T09:35:48;2.65;;;0.80;;
31210;SDS011;17836;50.948;3.946;2023-08-20T09:38:14;3.53;;;0.98;;
31210;SDS011;17836;50.948;3.946;2023-08-20T09:40:39;3.13;;;0.90;;
31210;SDS011;17836;50.948;3.946;2023-08-20T09:43:05;3.35;;;0.85;;
31210;SDS011;17836;50.948;3.946;2023-08-20T09:45:33;1.83;;;0.65;;
31210;SDS011;17836;50.948;3.946;2023-08-20T09:47:59;2.10;;;0.63;;
31210;SDS011;17836;50.948;3.946;2023-08-20T09:50:25;3.80;;;0.80;;
31210;SDS011;17836;50.948;3.946;2023-08-20T09:53:03;1.98;;;0.70;;
31210;SDS011;17836;50.948;3.946;2023-08-20T09:55:32;2.33;;;0.82;;
31210;SDS011;17836;50.948;3.946;2023-08-20T09:57:59;2.40;;;0.80;;
31210;SDS011;17836;50.948;3.946;2023-08-20T10:00:28;2.30;;;0.60;;
31210;SDS011;17836;50.948;3.946;2023-08-20T10:02:53;2.25;;;0.80;;
31210;SDS011;17836;50.948;3.946;2023-08-20T10:05:19;2.27;;;0.40;;
31210;SDS011;17836;50.948;3.946;2023-08-20T10:07:45;2.05;;;0.65;;
31210;SDS011;17836;50.948;3.946;2023-08-20T10:10:11;2.88;;;0.60;;
31210;SDS011;17836;50.948;3.946;2023-08-20T10:12:41;3.45;;;0.80;;
31210;SDS011;17836;50.948;3.946;2023-08-20T10:15:07;2.40;;;0.60;;
31210;SDS011;17836;50.948;3.946;2023-08-20T10:17:33;5.10;;;0.80;;
31210;SDS011;17836;50.948;3.946;2023-08-20T10:19:59;3.13;;;0.80;;
31210;SDS011;17836;50.948;3.946;2023-08-20T10:22:32;2.28;;;0.80;;
31210;SDS011;17836;50.948;3.946;2023-08-20T10:24:57;2.25;;;0.70;;
31210;SDS011;17836;50.948;3.946;2023-08-20T10:27:30;1.13;;;0.57;;
31210;SDS011;17836;50.948;3.946;2023-08-20T10:29:56;1.38;;;0.50;;
31210;SDS011;17836;50.948;3.946;2023-08-20T10:41:08;2.47;;;0.60;;
31210;SDS011;17836;50.948;3.946;2023-08-20T10:46:05;3.00;;;0.60;;
31210;SDS011;17836;50.948;3.946;2023-08-20T10:48:37;4.15;;;1.00;;
31210;SDS011;17836;50.948;3.946;2023-08-20T10:51:07;3.10;;;0.90;;
31210;SDS011;17836;50.948;3.946;2023-08-20T10:53:32;2.33;;;0.50;;
31210;SDS011;17836;50.948;3.946;2023-08-20T10:56:06;2.93;;;0.50;;
31210;SDS011;17836;50.948;3.946;2023-08-20T10:58:32;2.88;;;0.60;;
31210;SDS011;17836;50.948;3.946;2023-08-20T11:06:25;3.25;;;0.75;;
31210;SDS011;17836;50.948;3.946;2023-08-20T11:08:55;2.83;;;0.88;;
31210;SDS011;17836;50.948;3.946;2023-08-20T11:11:21;2.08;;;0.50;;
31210;SDS011;17836;50.948;3.946;2023-08-20T11:13:47;1.15;;;0.40;;
31210;SDS011;17836;50.948;3.946;2023-08-20T11:16:12;2.67;;;0.70;;
31210;SDS011;17836;50.948;3.946;2023-08-20T11:18:38;2.10;;;0.70;;
31210;SDS011;17836;50.948;3.946;2023-08-20T11:21:03;2.38;;;0.73;;
31210;SDS011;17836;50.948;3.946;2023-08-20T11:23:28;1.20;;;0.40;;
31210;SDS011;17836;50.948;3.946;2023-08-20T11:25:54;2.55;;;0.90;;
31210;SDS011;17836;50.948;3.946;2023-08-20T11:28:22;2.00;;;0.70;;
31210;SDS011;17836;50.948;3.946;2023-08-20T11:30:49;2.85;;;0.50;;
31210;SDS011;17836;50.948;3.946;2023-08-20T11:33:15;1.80;;;0.57;;
31210;SDS011;17836;50.948;3.946;2023-08-20T11:35:41;1.98;;;0.63;;
31210;SDS011;17836;50.948;3.946;2023-08-20T11:38:06;2.33;;;0.83;;
31210;SDS011;17836;50.948;3.946;2023-08-20T11:40:32;2.20;;;0.50;;
31210;SDS011;17836;50.948;3.946;2023-08-20T11:42:57;2.13;;;0.68;;
31210;SDS011;17836;50.948;3.946;2023-08-20T11:45:23;4.32;;;0.82;;
31210;SDS011;17836;50.948;3.946;2023-08-20T11:47:48;3.93;;;0.70;;
31210;SDS011;17836;50.948;3.946;2023-08-20T11:50:13;2.07;;;0.60;;
31210;SDS011;17836;50.948;3.946;2023-08-20T11:52:38;1.93;;;0.77;;
31210;SDS011;17836;50.948;3.946;2023-08-20T11:55:07;2.13;;;0.60;;
31210;SDS011;17836;50.948;3.946;2023-08-20T11:57:35;3.30;;;0.90;;
31210;SDS011;17836;50.948;3.946;2023-08-20T12:00:06;2.40;;;0.80;;
31210;SDS011;17836;50.948;3.946;2023-08-20T12:02:40;2.63;;;1.20;;
31210;SDS011;17836;50.948;3.946;2023-08-20T12:05:05;1.75;;;0.52;;
31210;SDS011;17836;50.948;3.946;2023-08-20T12:07:31;2.95;;;0.60;;
31210;SDS011;17836;50.948;3.946;2023-08-20T12:09:56;2.00;;;0.77;;
31210;SDS011;17836;50.948;3.946;2023-08-20T12:12:21;1.50;;;0.80;;
31210;SDS011;17836;50.948;3.946;2023-08-20T12:14:47;3.58;;;0.93;;
31210;SDS011;17836;50.948;3.946;2023-08-20T12:17:16;2.80;;;0.65;;
31210;SDS011;17836;50.948;3.946;2023-08-20T12:19:41;2.55;;;0.88;;
31210;SDS011;17836;50.948;3.946;2023-08-20T12:22:07;1.67;;;0.90;;
31210;SDS011;17836;50.948;3.946;2023-08-20T12:24:33;1.95;;;0.70;;
31210;SDS011;17836;50.948;3.946;2023-08-20T12:27:03;3.65;;;0.80;;
31210;SDS011;17836;50.948;3.946;2023-08-20T12:29:28;1.60;;;0.60;;
31210;SDS011;17836;50.948;3.946;2023-08-20T12:31:54;2.00;;;0.57;;
31210;SDS011;17836;50.948;3.946;2023-08-20T12:34:19;2.57;;;0.80;;
31210;SDS011;17836;50.948;3.946;2023-08-20T12:36:48;1.83;;;0.60;;
31210;SDS011;17836;50.948;3.946;2023-08-20T12:39:13;3.08;;;0.57;;
31210;SDS011;17836;50.948;3.946;2023-08-20T12:41:39;2.78;;;0.80;;
31210;SDS011;17836;50.948;3.946;2023-08-20T12:44:04;1.17;;;0.70;;
31210;SDS011;17836;50.948;3.946;2023-08-20T12:46:32;1.48;;;0.50;;
31210;SDS011;17836;50.948;3.946;2023-08-20T12:48:57;3.92;;;0.88;;
31210;SDS011;17836;50.948;3.946;2023-08-20T12:51:23;3.10;;;0.93;;
31210;SDS011;17836;50.948;3.946;2023-08-20T12:53:50;5.53;;;0.90;;
31210;SDS011;17836;50.948;3.946;2023-08-20T12:56:16;2.42;;;0.70;;
31210;SDS011;17836;50.948;3.946;2023-08-20T12:58:41;2.47;;;0.85;;
31210;SDS011;17836;50.948;3.946;2023-08-20T13:01:06;1.58;;;0.70;;
31210;SDS011;17836;50.948;3.946;2023-08-20T13:03:32;4.07;;;0.88;;
31210;SDS011;17836;50.948;3.946;2023-08-20T13:05:57;2.78;;;0.80;;
31210;SDS011;17836;50.948;3.946;2023-08-20T13:08:23;1.33;;;0.50;;
31210;SDS011;17836;50.948;3.946;2023-08-20T13:10:50;3.33;;;0.93;;
31210;SDS011;17836;50.948;3.946;2023-08-20T13:13:17;1.98;;;0.65;;
31210;SDS011;17836;50.948;3.946;2023-08-20T13:15:51;1.67;;;0.57;;
31210;SDS011;17836;50.948;3.946;2023-08-20T13:18:17;5.55;;;0.98;;
31210;SDS011;17836;50.948;3.946;2023-08-20T13:20:43;1.77;;;0.50;;
31210;SDS011;17836;50.948;3.946;2023-08-20T13:23:08;2.25;;;0.90;;
31210;SDS011;17836;50.948;3.946;2023-08-20T13:25:34;1.50;;;0.50;;
31210;SDS011;17836;50.948;3.946;2023-08-20T13:27:59;1.88;;;0.52;;
31210;SDS011;17836;50.948;3.946;2023-08-20T13:30:24;2.10;;;0.70;;
31210;SDS011;17836;50.948;3.946;2023-08-20T13:32:52;0.98;;;0.45;;
31210;SDS011;17836;50.948;3.946;2023-08-20T13:35:17;2.15;;;0.55;;
31210;SDS011;17836;50.948;3.946;2023-08-20T13:37:47;3.03;;;0.80;;
31210;SDS011;17836;50.948;3.946;2023-08-20T13:40:13;3.78;;;0.80;;
31210;SDS011;17836;50.948;3.946;2023-08-20T13:42:40;3.55;;;0.82;;
31210;SDS011;17836;50.948;3.946;2023-08-20T13:45:06;2.92;;;0.77;;
31210;SDS011;17836;50.948;3.946;2023-08-20T13:47:31;1.65;;;0.50;;
31210;SDS011;17836;50.948;3.946;2023-08-20T13:49:57;4.13;;;1.17;;
31210;SDS011;17836;50.948;3.946;2023-08-20T13:52:22;2.23;;;1.10;;
31210;SDS011;17836;50.948;3.946;2023-08-20T13:54:47;1.37;;;0.70;;
31210;SDS011;17836;50.948;3.946;2023-08-20T13:57:12;4.13;;;0.70;;
31210;SDS011;17836;50.948;3.946;2023-08-20T13:59:38;1.67;;;0.50;;
31210;SDS011;17836;50.948;3.946;2023-08-20T14:02:03;1.65;;;0.73;;
31210;SDS011;17836;50.948;3.946;2023-08-20T14:04:29;2.07;;;0.80;;
31210;SDS011;17836;50.948;3.946;2023-08-20T14:06:54;1.93;;;0.60;;
31210;SDS011;17836;50.948;3.946;2023-08-20T14:09:19;1.40;;;0.43;;
31210;SDS011;17836;50.948;3.946;2023-08-20T14:11:48;1.90;;;0.70;;
31210;SDS011;17836;50.948;3.946;2023-08-20T14:14:13;2.08;;;0.60;;
31210;SDS011;17836;50.948;3.946;2023-08-20T14:16:38;2.70;;;0.60;;
31210;SDS011;17836;50.948;3.946;2023-08-20T14:19:04;3.08;;;0.60;;
31210;SDS011;17836;50.948;3.946;2023-08-20T14:21:29;1.95;;;0.55;;
31210;SDS011;17836;50.948;3.946;2023-08-20T14:23:54;2.73;;;0.60;;
31210;SDS011;17836;50.948;3.946;2023-08-20T14:26:20;2.67;;;0.50;;
31210;SDS011;17836;50.948;3.946;2023-08-20T14:28:48;2.80;;;0.65;;
31210;SDS011;17836;50.948;3.946;2023-08-20T14:31:13;1.93;;;0.87;;
31210;SDS011;17836;50.948;3.946;2023-08-20T14:33:39;1.73;;;0.60;;
31210;SDS011;17836;50.948;3.946;2023-08-20T14:36:04;2.77;;;0.60;;
31210;SDS011;17836;50.948;3.946;2023-08-20T14:38:30;3.22;;;0.63;;
31210;SDS011;17836;50.948;3.946;2023-08-20T14:40:59;2.03;;;0.73;;
31210;SDS011;17836;50.948;3.946;2023-08-20T14:43:26;2.50;;;0.70;;
31210;SDS011;17836;50.948;3.946;2023-08-20T14:45:52;2.35;;;0.80;;
31210;SDS011;17836;50.948;3.946;2023-08-20T14:48:17;2.17;;;0.70;;
31210;SDS011;17836;50.948;3.946;2023-08-20T14:50:45;1.77;;;0.52;;
31210;SDS011;17836;50.948;3.946;2023-08-20T14:53:10;2.53;;;0.70;;
31210;SDS011;17836;50.948;3.946;2023-08-20T14:55:37;3.22;;;0.70;;
31210;SDS011;17836;50.948;3.946;2023-08-20T14:58:02;2.33;;;0.70;;
31210;SDS011;17836;50.948;3.946;2023-08-20T15:00:30;2.20;;;1.05;;
31210;SDS011;17836;50.948;3.946;2023-08-20T15:02:57;1.95;;;0.63;;
31210;SDS011;17836;50.948;3.946;2023-08-20T15:05:22;1.60;;;0.70;;
31210;SDS011;17836;50.948;3.946;2023-08-20T15:07:47;5.03;;;0.90;;